sensor_id;sensor_type;location;lat;lon;timestamp;P1;durP1;ratioP1;P2;durP2;ratioP2
72422;SDS011;71399;54.146;38.734;2023-11-19T00:00:51;7.00;;;3.08;;
72422;SDS011;71399;54.146;38.734;2023-11-19T00:03:17;5.18;;;3.00;;
72422;SDS011;71399;54.146;38.734;2023-11-19T00:05:44;5.78;;;3.17;;
72422;SDS011;71399;54.146;38.734;2023-11-19T00:08:14;6.82;;;3.25;;
72422;SDS011;71399;54.146;38.734;2023-11-19T00:10:40;6.32;;;3.70;;
72422;SDS011;71399;54.146;38.734;2023-11-19T00:13:06;6.57;;;3.30;;
72422;SDS011;71399;54.146;38.734;2023-11-19T00:15:32;8.13;;;3.97;;
72422;SDS011;71399;54.146;38.734;2023-11-19T00:17:59;5.50;;;3.28;;
72422;SDS011;71399;54.146;38.734;2023-11-19T00:20:25;6.70;;;3.28;;
72422;SDS011;71399;54.146;38.734;2023-11-19T00:22:51;6.35;;;4.13;;
72422;SDS011;71399;54.146;38.734;2023-11-19T00:25:18;5.40;;;3.55;;
72422;SDS011;71399;54.146;38.734;2023-11-19T00:27:45;6.75;;;3.80;;
72422;SDS011;71399;54.146;38.734;2023-11-19T00:30:11;5.40;;;3.05;;
72422;SDS011;71399;54.146;38.734;2023-11-19T00:32:39;6.20;;;4.05;;
72422;SDS011;71399;54.146;38.734;2023-11-19T00:35:06;6.72;;;3.47;;
72422;SDS011;71399;54.146;38.734;2023-11-19T00:37:33;8.20;;;3.35;;
72422;SDS011;71399;54.146;38.734;2023-11-19T00:40:00;8.77;;;4.45;;
72422;SDS011;71399;54.146;38.734;2023-11-19T00:42:26;9.90;;;4.60;;
72422;SDS011;71399;54.146;38.734;2023-11-19T00:44:53;6.75;;;4.13;;
72422;SDS011;71399;54.146;38.734;2023-11-19T00:47:19;6.28;;;3.60;;
72422;SDS011;71399;54.146;38.734;2023-11-19T00:49:48;6.97;;;3.65;;
72422;SDS011;71399;54.146;38.734;2023-11-19T00:52:16;7.57;;;3.60;;
72422;SDS011;71399;54.146;38.734;2023-11-19T00:54:43;10.00;;;3.75;;
72422;SDS011;71399;54.146;38.734;2023-11-19T00:57:09;5.97;;;3.58;;
72422;SDS011;71399;54.146;38.734;2023-11-19T00:59:36;7.13;;;3.88;;
72422;SDS011;71399;54.146;38.734;2023-11-19T01:02:03;6.82;;;3.63;;
72422;SDS011;71399;54.146;38.734;2023-11-19T01:04:35;7.75;;;4.15;;
72422;SDS011;71399;54.146;38.734;2023-11-19T01:07:02;6.25;;;3.22;;
72422;SDS011;71399;54.146;38.734;2023-11-19T01:09:32;8.10;;;3.20;;
72422;SDS011;71399;54.146;38.734;2023-11-19T01:12:01;7.78;;;3.47;;
72422;SDS011;71399;54.146;38.734;2023-11-19T01:14:28;7.38;;;4.00;;
72422;SDS011;71399;54.146;38.734;2023-11-19T01:16:54;8.90;;;4.50;;
72422;SDS011;71399;54.146;38.734;2023-11-19T01:19:21;5.15;;;3.25;;
72422;SDS011;71399;54.146;38.734;2023-11-19T01:21:49;6.15;;;3.55;;
72422;SDS011;71399;54.146;38.734;2023-11-19T01:24:15;4.72;;;2.65;;
72422;SDS011;71399;54.146;38.734;2023-11-19T01:26:43;4.47;;;3.03;;
72422;SDS011;71399;54.146;38.734;2023-11-19T01:29:11;4.97;;;2.50;;
72422;SDS011;71399;54.146;38.734;2023-11-19T01:31:43;9.35;;;3.92;;
72422;SDS011;71399;54.146;38.734;2023-11-19T01:34:12;6.10;;;3.20;;
72422;SDS011;71399;54.146;38.734;2023-11-19T01:36:39;5.78;;;3.35;;
72422;SDS011;71399;54.146;38.734;2023-11-19T01:39:05;10.32;;;3.80;;
72422;SDS011;71399;54.146;38.734;2023-11-19T01:41:35;5.82;;;3.60;;
72422;SDS011;71399;54.146;38.734;2023-11-19T01:44:02;5.20;;;3.63;;
72422;SDS011;71399;54.146;38.734;2023-11-19T01:46:29;4.60;;;3.20;;
72422;SDS011;71399;54.146;38.734;2023-11-19T01:48:58;6.25;;;3.40;;
72422;SDS011;71399;54.146;38.734;2023-11-19T01:51:25;9.65;;;4.15;;
72422;SDS011;71399;54.146;38.734;2023-11-19T01:53:53;6.90;;;3.85;;
72422;SDS011;71399;54.146;38.734;2023-11-19T01:56:22;4.90;;;3.60;;
72422;SDS011;71399;54.146;38.734;2023-11-19T01:58:51;8.60;;;4.18;;
72422;SDS011;71399;54.146;38.734;2023-11-19T02:01:18;7.05;;;4.32;;
72422;SDS011;71399;54.146;38.734;2023-11-19T02:03:44;9.77;;;4.15;;
72422;SDS011;71399;54.146;38.734;2023-11-19T02:06:12;7.28;;;3.90;;
72422;SDS011;71399;54.146;38.734;2023-11-19T02:08:39;6.30;;;3.55;;
72422;SDS011;71399;54.146;38.734;2023-11-19T02:11:05;8.27;;;4.07;;
72422;SDS011;71399;54.146;38.734;2023-11-19T02:13:35;6.32;;;4.30;;
72422;SDS011;71399;54.146;38.734;2023-11-19T02:16:03;9.07;;;4.65;;
72422;SDS011;71399;54.146;38.734;2023-11-19T02:18:30;6.65;;;3.53;;
72422;SDS011;71399;54.146;38.734;2023-11-19T02:20:57;7.43;;;4.07;;
72422;SDS011;71399;54.146;38.734;2023-11-19T02:23:28;7.18;;;3.88;;
72422;SDS011;71399;54.146;38.734;2023-11-19T02:26:03;7.07;;;3.30;;
72422;SDS011;71399;54.146;38.734;2023-11-19T02:28:51;8.38;;;4.03;;
72422;SDS011;71399;54.146;38.734;2023-11-19T02:31:18;8.40;;;4.10;;
72422;SDS011;71399;54.146;38.734;2023-11-19T02:33:44;7.47;;;4.07;;
72422;SDS011;71399;54.146;38.734;2023-11-19T02:36:11;7.43;;;4.57;;
72422;SDS011;71399;54.146;38.734;2023-11-19T02:38:37;7.97;;;4.10;;
72422;SDS011;71399;54.146;38.734;2023-11-19T02:41:04;7.03;;;3.55;;
72422;SDS011;71399;54.146;38.734;2023-11-19T02:43:33;6.10;;;3.53;;
72422;SDS011;71399;54.146;38.734;2023-11-19T02:46:03;8.93;;;3.85;;
72422;SDS011;71399;54.146;38.734;2023-11-19T02:48:35;6.95;;;3.75;;
72422;SDS011;71399;54.146;38.734;2023-11-19T02:51:02;7.72;;;4.20;;
72422;SDS011;71399;54.146;38.734;2023-11-19T02:53:35;10.47;;;4.33;;
72422;SDS011;71399;54.146;38.734;2023-11-19T02:56:03;6.43;;;4.57;;
72422;SDS011;71399;54.146;38.734;2023-11-19T02:58:56;7.82;;;3.75;;
72422;SDS011;71399;54.146;38.734;2023-11-19T03:01:23;6.00;;;4.10;;
72422;SDS011;71399;54.146;38.734;2023-11-19T03:03:57;6.70;;;3.47;;
72422;SDS011;71399;54.146;38.734;2023-11-19T03:06:24;10.50;;;3.72;;
72422;SDS011;71399;54.146;38.734;2023-11-19T03:08:50;7.70;;;3.80;;
72422;SDS011;71399;54.146;38.734;2023-11-19T03:11:17;6.38;;;4.18;;
72422;SDS011;71399;54.146;38.734;2023-11-19T03:13:43;7.75;;;4.07;;
72422;SDS011;71399;54.146;38.734;2023-11-19T03:16:09;7.30;;;4.05;;
72422;SDS011;71399;54.146;38.734;2023-11-19T03:18:37;7.03;;;3.92;;
72422;SDS011;71399;54.146;38.734;2023-11-19T03:21:08;6.40;;;3.80;;
72422;SDS011;71399;54.146;38.734;2023-11-19T03:23:34;7.60;;;4.43;;
72422;SDS011;71399;54.146;38.734;2023-11-19T03:26:01;7.40;;;3.33;;
72422;SDS011;71399;54.146;38.734;2023-11-19T03:28:31;5.53;;;3.72;;
72422;SDS011;71399;54.146;38.734;2023-11-19T03:30:58;8.13;;;5.00;;
72422;SDS011;71399;54.146;38.734;2023-11-19T03:33:25;7.95;;;4.50;;
72422;SDS011;71399;54.146;38.734;2023-11-19T03:35:54;5.63;;;3.47;;
72422;SDS011;71399;54.146;38.734;2023-11-19T03:38:22;4.93;;;3.28;;
72422;SDS011;71399;54.146;38.734;2023-11-19T03:40:50;7.60;;;3.70;;
72422;SDS011;71399;54.146;38.734;2023-11-19T03:43:17;5.38;;;3.63;;
72422;SDS011;71399;54.146;38.734;2023-11-19T03:45:44;11.52;;;3.55;;
72422;SDS011;71399;54.146;38.734;2023-11-19T03:48:12;8.02;;;4.18;;
72422;SDS011;71399;54.146;38.734;2023-11-19T03:50:39;6.80;;;3.72;;
72422;SDS011;71399;54.146;38.734;2023-11-19T03:53:06;6.07;;;3.80;;
72422;SDS011;71399;54.146;38.734;2023-11-19T03:55:32;4.78;;;2.97;;
72422;SDS011;71399;54.146;38.734;2023-11-19T03:57:59;6.80;;;3.60;;
72422;SDS011;71399;54.146;38.734;2023-11-19T04:00:25;5.97;;;3.53;;
72422;SDS011;71399;54.146;38.734;2023-11-19T04:02:51;6.47;;;3.80;;
72422;SDS011;71399;54.146;38.734;2023-11-19T04:05:18;6.00;;;3.47;;
72422;SDS011;71399;54.146;38.734;2023-11-19T04:07:45;7.47;;;3.95;;
72422;SDS011;71399;54.146;38.734;2023-11-19T04:10:11;6.78;;;3.45;;
72422;SDS011;71399;54.146;38.734;2023-11-19T04:12:37;8.10;;;4.18;;
72422;SDS011;71399;54.146;38.734;2023-11-19T04:15:03;7.40;;;5.30;;
72422;SDS011;71399;54.146;38.734;2023-11-19T04:17:31;6.95;;;4.63;;
72422;SDS011;71399;54.146;38.734;2023-11-19T04:19:57;7.32;;;3.65;;
72422;SDS011;71399;54.146;38.734;2023-11-19T04:22:24;5.68;;;3.92;;
72422;SDS011;71399;54.146;38.734;2023-11-19T04:24:51;10.95;;;4.45;;
72422;SDS011;71399;54.146;38.734;2023-11-19T04:27:17;6.70;;;3.75;;
72422;SDS011;71399;54.146;38.734;2023-11-19T04:29:43;4.50;;;3.05;;
72422;SDS011;71399;54.146;38.734;2023-11-19T04:32:11;6.35;;;3.40;;
72422;SDS011;71399;54.146;38.734;2023-11-19T04:34:37;10.27;;;2.75;;
72422;SDS011;71399;54.146;38.734;2023-11-19T04:37:04;6.38;;;3.28;;
72422;SDS011;71399;54.146;38.734;2023-11-19T04:39:30;6.03;;;3.03;;
72422;SDS011;71399;54.146;38.734;2023-11-19T04:41:56;5.07;;;2.92;;
72422;SDS011;71399;54.146;38.734;2023-11-19T04:44:23;5.25;;;3.05;;
72422;SDS011;71399;54.146;38.734;2023-11-19T04:46:49;6.03;;;3.25;;
72422;SDS011;71399;54.146;38.734;2023-11-19T04:49:15;6.13;;;2.92;;
72422;SDS011;71399;54.146;38.734;2023-11-19T04:51:43;5.88;;;3.33;;
72422;SDS011;71399;54.146;38.734;2023-11-19T04:54:12;5.13;;;3.22;;
72422;SDS011;71399;54.146;38.734;2023-11-19T04:56:39;7.57;;;3.53;;
72422;SDS011;71399;54.146;38.734;2023-11-19T04:59:06;10.55;;;4.03;;
72422;SDS011;71399;54.146;38.734;2023-11-19T05:01:33;5.30;;;3.15;;
72422;SDS011;71399;54.146;38.734;2023-11-19T05:03:59;13.70;;;3.58;;
72422;SDS011;71399;54.146;38.734;2023-11-19T05:06:27;7.75;;;3.50;;
72422;SDS011;71399;54.146;38.734;2023-11-19T05:08:57;6.68;;;2.83;;
72422;SDS011;71399;54.146;38.734;2023-11-19T05:11:27;5.78;;;3.22;;
72422;SDS011;71399;54.146;38.734;2023-11-19T05:13:54;5.50;;;3.22;;
72422;SDS011;71399;54.146;38.734;2023-11-19T05:16:20;5.93;;;2.92;;
72422;SDS011;71399;54.146;38.734;2023-11-19T05:18:47;6.82;;;3.03;;
72422;SDS011;71399;54.146;38.734;2023-11-19T05:21:13;6.70;;;2.85;;
72422;SDS011;71399;54.146;38.734;2023-11-19T05:23:40;5.10;;;2.90;;
72422;SDS011;71399;54.146;38.734;2023-11-19T05:26:08;11.43;;;2.35;;
72422;SDS011;71399;54.146;38.734;2023-11-19T05:28:37;8.70;;;3.65;;
72422;SDS011;71399;54.146;38.734;2023-11-19T05:31:05;4.72;;;2.75;;
72422;SDS011;71399;54.146;38.734;2023-11-19T05:33:32;3.80;;;2.65;;
72422;SDS011;71399;54.146;38.734;2023-11-19T05:35:58;5.40;;;2.97;;
72422;SDS011;71399;54.146;38.734;2023-11-19T05:38:24;6.25;;;2.25;;
72422;SDS011;71399;54.146;38.734;2023-11-19T05:40:50;3.92;;;2.35;;
72422;SDS011;71399;54.146;38.734;2023-11-19T05:43:17;6.63;;;2.75;;
72422;SDS011;71399;54.146;38.734;2023-11-19T05:45:43;5.68;;;2.90;;
72422;SDS011;71399;54.146;38.734;2023-11-19T05:48:10;7.40;;;2.75;;
72422;SDS011;71399;54.146;38.734;2023-11-19T05:50:36;5.63;;;2.60;;
72422;SDS011;71399;54.146;38.734;2023-11-19T05:53:02;6.22;;;2.70;;
72422;SDS011;71399;54.146;38.734;2023-11-19T05:55:33;6.05;;;2.78;;
72422;SDS011;71399;54.146;38.734;2023-11-19T05:58:01;2.80;;;1.90;;
72422;SDS011;71399;54.146;38.734;2023-11-19T06:00:28;3.75;;;2.30;;
72422;SDS011;71399;54.146;38.734;2023-11-19T06:02:55;3.35;;;1.67;;
72422;SDS011;71399;54.146;38.734;2023-11-19T06:05:21;4.63;;;2.42;;
72422;SDS011;71399;54.146;38.734;2023-11-19T06:07:47;3.67;;;2.00;;
72422;SDS011;71399;54.146;38.734;2023-11-19T06:10:13;3.58;;;2.00;;
72422;SDS011;71399;54.146;38.734;2023-11-19T06:12:42;4.68;;;2.15;;
72422;SDS011;71399;54.146;38.734;2023-11-19T06:15:09;7.10;;;2.42;;
72422;SDS011;71399;54.146;38.734;2023-11-19T06:17:35;4.35;;;2.22;;
72422;SDS011;71399;54.146;38.734;2023-11-19T06:20:01;4.53;;;1.80;;
72422;SDS011;71399;54.146;38.734;2023-11-19T06:22:30;10.10;;;2.20;;
72422;SDS011;71399;54.146;38.734;2023-11-19T06:24:56;22.45;;;2.17;;
72422;SDS011;71399;54.146;38.734;2023-11-19T06:27:24;3.70;;;1.95;;
72422;SDS011;71399;54.146;38.734;2023-11-19T06:29:50;7.72;;;2.58;;
72422;SDS011;71399;54.146;38.734;2023-11-19T06:32:16;5.90;;;1.88;;
72422;SDS011;71399;54.146;38.734;2023-11-19T06:34:42;4.43;;;1.98;;
72422;SDS011;71399;54.146;38.734;2023-11-19T06:37:09;3.35;;;2.10;;
72422;SDS011;71399;54.146;38.734;2023-11-19T06:39:35;3.35;;;1.88;;
72422;SDS011;71399;54.146;38.734;2023-11-19T06:42:01;5.88;;;2.28;;
72422;SDS011;71399;54.146;38.734;2023-11-19T06:44:28;3.53;;;1.80;;
72422;SDS011;71399;54.146;38.734;2023-11-19T06:46:54;4.75;;;2.00;;
72422;SDS011;71399;54.146;38.734;2023-11-19T06:49:20;5.95;;;1.88;;
72422;SDS011;71399;54.146;38.734;2023-11-19T06:51:47;7.40;;;2.10;;
72422;SDS011;71399;54.146;38.734;2023-11-19T06:54:13;3.00;;;1.63;;
72422;SDS011;71399;54.146;38.734;2023-11-19T06:56:39;3.45;;;1.70;;
72422;SDS011;71399;54.146;38.734;2023-11-19T06:59:07;7.53;;;1.77;;
72422;SDS011;71399;54.146;38.734;2023-11-19T07:01:35;3.20;;;1.70;;
72422;SDS011;71399;54.146;38.734;2023-11-19T07:04:02;2.97;;;1.52;;
72422;SDS011;71399;54.146;38.734;2023-11-19T07:06:37;3.78;;;2.22;;
72422;SDS011;71399;54.146;38.734;2023-11-19T07:09:06;3.10;;;2.08;;
72422;SDS011;71399;54.146;38.734;2023-11-19T07:11:39;4.35;;;2.28;;
72422;SDS011;71399;54.146;38.734;2023-11-19T07:14:06;5.68;;;1.92;;
72422;SDS011;71399;54.146;38.734;2023-11-19T07:16:33;6.35;;;1.88;;
72422;SDS011;71399;54.146;38.734;2023-11-19T07:19:01;4.15;;;1.92;;
72422;SDS011;71399;54.146;38.734;2023-11-19T07:21:27;2.90;;;1.80;;
72422;SDS011;71399;54.146;38.734;2023-11-19T07:23:54;4.07;;;2.03;;
72422;SDS011;71399;54.146;38.734;2023-11-19T07:26:21;2.92;;;1.80;;
72422;SDS011;71399;54.146;38.734;2023-11-19T07:28:49;3.10;;;1.90;;
72422;SDS011;71399;54.146;38.734;2023-11-19T07:31:15;2.60;;;1.48;;
72422;SDS011;71399;54.146;38.734;2023-11-19T07:33:45;4.03;;;1.90;;
72422;SDS011;71399;54.146;38.734;2023-11-19T07:36:12;2.58;;;1.52;;
72422;SDS011;71399;54.146;38.734;2023-11-19T07:38:41;4.03;;;1.90;;
72422;SDS011;71399;54.146;38.734;2023-11-19T07:41:08;4.28;;;2.15;;
72422;SDS011;71399;54.146;38.734;2023-11-19T07:43:39;2.28;;;1.40;;
72422;SDS011;71399;54.146;38.734;2023-11-19T07:46:10;2.92;;;1.48;;
72422;SDS011;71399;54.146;38.734;2023-11-19T07:48:39;3.05;;;1.85;;
72422;SDS011;71399;54.146;38.734;2023-11-19T07:51:08;3.05;;;1.55;;
72422;SDS011;71399;54.146;38.734;2023-11-19T07:53:34;2.58;;;1.48;;
72422;SDS011;71399;54.146;38.734;2023-11-19T07:56:00;2.63;;;1.80;;
72422;SDS011;71399;54.146;38.734;2023-11-19T07:58:27;3.17;;;1.98;;
72422;SDS011;71399;54.146;38.734;2023-11-19T08:00:53;2.33;;;1.80;;
72422;SDS011;71399;54.146;38.734;2023-11-19T08:03:19;3.38;;;1.70;;
72422;SDS011;71399;54.146;38.734;2023-11-19T08:05:48;2.22;;;1.52;;
72422;SDS011;71399;54.146;38.734;2023-11-19T08:08:14;2.78;;;1.42;;
72422;SDS011;71399;54.146;38.734;2023-11-19T08:10:41;2.20;;;1.25;;
72422;SDS011;71399;54.146;38.734;2023-11-19T08:13:07;1.90;;;1.30;;
72422;SDS011;71399;54.146;38.734;2023-11-19T08:15:33;3.40;;;1.90;;
72422;SDS011;71399;54.146;38.734;2023-11-19T08:18:00;3.95;;;1.70;;
72422;SDS011;71399;54.146;38.734;2023-11-19T08:20:26;2.40;;;1.52;;
72422;SDS011;71399;54.146;38.734;2023-11-19T08:22:52;2.42;;;1.48;;
72422;SDS011;71399;54.146;38.734;2023-11-19T08:25:18;4.13;;;1.80;;
72422;SDS011;71399;54.146;38.734;2023-11-19T08:27:44;2.50;;;1.52;;
72422;SDS011;71399;54.146;38.734;2023-11-19T08:30:11;2.60;;;1.85;;
72422;SDS011;71399;54.146;38.734;2023-11-19T08:32:38;2.75;;;1.67;;
72422;SDS011;71399;54.146;38.734;2023-11-19T08:35:04;3.45;;;1.73;;
72422;SDS011;71399;54.146;38.734;2023-11-19T08:37:31;2.70;;;1.42;;
72422;SDS011;71399;54.146;38.734;2023-11-19T08:39:57;2.35;;;1.70;;
72422;SDS011;71399;54.146;38.734;2023-11-19T08:42:25;2.10;;;1.60;;
72422;SDS011;71399;54.146;38.734;2023-11-19T08:44:51;2.35;;;1.52;;
72422;SDS011;71399;54.146;38.734;2023-11-19T08:47:20;4.45;;;1.77;;
72422;SDS011;71399;54.146;38.734;2023-11-19T08:49:51;3.85;;;2.08;;
72422;SDS011;71399;54.146;38.734;2023-11-19T08:52:21;3.70;;;1.85;;
72422;SDS011;71399;54.146;38.734;2023-11-19T08:54:47;4.20;;;1.95;;
72422;SDS011;71399;54.146;38.734;2023-11-19T08:57:13;2.17;;;1.63;;
72422;SDS011;71399;54.146;38.734;2023-11-19T08:59:40;4.65;;;1.73;;
72422;SDS011;71399;54.146;38.734;2023-11-19T09:02:06;3.33;;;1.55;;
72422;SDS011;71399;54.146;38.734;2023-11-19T09:04:33;2.78;;;1.60;;
72422;SDS011;71399;54.146;38.734;2023-11-19T09:07:00;3.13;;;1.60;;
72422;SDS011;71399;54.146;38.734;2023-11-19T09:09:26;2.60;;;1.45;;
72422;SDS011;71399;54.146;38.734;2023-11-19T09:11:52;3.45;;;1.50;;
72422;SDS011;71399;54.146;38.734;2023-11-19T09:14:19;2.30;;;1.70;;
72422;SDS011;71399;54.146;38.734;2023-11-19T09:16:49;3.67;;;2.00;;
72422;SDS011;71399;54.146;38.734;2023-11-19T09:19:16;3.67;;;2.03;;
72422;SDS011;71399;54.146;38.734;2023-11-19T09:21:43;4.90;;;1.95;;
72422;SDS011;71399;54.146;38.734;2023-11-19T09:24:09;2.67;;;1.85;;
72422;SDS011;71399;54.146;38.734;2023-11-19T09:26:35;5.35;;;2.50;;
72422;SDS011;71399;54.146;38.734;2023-11-19T09:29:02;3.33;;;2.10;;
72422;SDS011;71399;54.146;38.734;2023-11-19T09:31:28;4.65;;;2.15;;
72422;SDS011;71399;54.146;38.734;2023-11-19T09:33:54;3.33;;;1.80;;
72422;SDS011;71399;54.146;38.734;2023-11-19T09:36:21;4.55;;;2.42;;
72422;SDS011;71399;54.146;38.734;2023-11-19T09:38:48;2.60;;;2.00;;
72422;SDS011;71399;54.146;38.734;2023-11-19T09:41:14;3.42;;;1.90;;
72422;SDS011;71399;54.146;38.734;2023-11-19T09:43:42;3.63;;;2.28;;
72422;SDS011;71399;54.146;38.734;2023-11-19T09:46:09;4.15;;;2.13;;
72422;SDS011;71399;54.146;38.734;2023-11-19T09:48:37;6.10;;;2.30;;
72422;SDS011;71399;54.146;38.734;2023-11-19T09:51:04;3.45;;;2.38;;
72422;SDS011;71399;54.146;38.734;2023-11-19T09:53:31;3.38;;;2.38;;
72422;SDS011;71399;54.146;38.734;2023-11-19T09:55:59;4.82;;;2.40;;
72422;SDS011;71399;54.146;38.734;2023-11-19T09:58:26;5.90;;;3.83;;
72422;SDS011;71399;54.146;38.734;2023-11-19T10:00:52;7.90;;;4.40;;
72422;SDS011;71399;54.146;38.734;2023-11-19T10:03:18;9.93;;;3.50;;
72422;SDS011;71399;54.146;38.734;2023-11-19T10:05:45;3.55;;;2.30;;
72422;SDS011;71399;54.146;38.734;2023-11-19T10:08:11;4.28;;;2.60;;
72422;SDS011;71399;54.146;38.734;2023-11-19T10:10:38;4.30;;;2.95;;
72422;SDS011;71399;54.146;38.734;2023-11-19T10:13:04;3.50;;;2.25;;
72422;SDS011;71399;54.146;38.734;2023-11-19T10:15:33;3.50;;;2.05;;
72422;SDS011;71399;54.146;38.734;2023-11-19T10:18:03;3.65;;;2.20;;
72422;SDS011;71399;54.146;38.734;2023-11-19T10:20:36;3.92;;;2.35;;
72422;SDS011;71399;54.146;38.734;2023-11-19T10:23:03;4.68;;;2.78;;
72422;SDS011;71399;54.146;38.734;2023-11-19T10:25:29;3.97;;;2.45;;
72422;SDS011;71399;54.146;38.734;2023-11-19T10:27:56;3.63;;;2.58;;
72422;SDS011;71399;54.146;38.734;2023-11-19T10:30:24;5.35;;;2.70;;
72422;SDS011;71399;54.146;38.734;2023-11-19T10:35:52;3.67;;;2.45;;
72422;SDS011;71399;54.146;38.734;2023-11-19T10:38:24;3.83;;;2.40;;
72422;SDS011;71399;54.146;38.734;2023-11-19T10:40:51;3.30;;;2.40;;
72422;SDS011;71399;54.146;38.734;2023-11-19T10:43:18;3.55;;;2.65;;
72422;SDS011;71399;54.146;38.734;2023-11-19T10:45:47;3.25;;;2.13;;
72422;SDS011;71399;54.146;38.734;2023-11-19T10:48:13;3.67;;;2.55;;
72422;SDS011;71399;54.146;38.734;2023-11-19T10:50:41;3.72;;;2.60;;
72422;SDS011;71399;54.146;38.734;2023-11-19T10:53:09;5.95;;;2.78;;
72422;SDS011;71399;54.146;38.734;2023-11-19T10:55:39;4.70;;;2.75;;
72422;SDS011;71399;54.146;38.734;2023-11-19T10:58:06;3.95;;;2.47;;
72422;SDS011;71399;54.146;38.734;2023-11-19T11:00:37;4.00;;;2.28;;
72422;SDS011;71399;54.146;38.734;2023-11-19T11:03:16;4.63;;;2.60;;
72422;SDS011;71399;54.146;38.734;2023-11-19T11:05:43;13.18;;;2.80;;
72422;SDS011;71399;54.146;38.734;2023-11-19T11:08:13;3.58;;;2.28;;
72422;SDS011;71399;54.146;38.734;2023-11-19T11:10:44;3.42;;;2.08;;
72422;SDS011;71399;54.146;38.734;2023-11-19T11:13:19;5.68;;;2.60;;
72422;SDS011;71399;54.146;38.734;2023-11-19T11:15:45;4.45;;;2.60;;
72422;SDS011;71399;54.146;38.734;2023-11-19T11:18:13;3.33;;;2.13;;
72422;SDS011;71399;54.146;38.734;2023-11-19T11:20:40;4.32;;;2.42;;
72422;SDS011;71399;54.146;38.734;2023-11-19T11:29:03;8.68;;;2.50;;
72422;SDS011;71399;54.146;38.734;2023-11-19T11:31:36;5.97;;;2.50;;
72422;SDS011;71399;54.146;38.734;2023-11-19T11:34:33;3.28;;;2.25;;
72422;SDS011;71399;54.146;38.734;2023-11-19T11:37:35;5.85;;;2.78;;
72422;SDS011;71399;54.146;38.734;2023-11-19T11:40:14;3.55;;;2.30;;
72422;SDS011;71399;54.146;38.734;2023-11-19T11:42:41;3.58;;;2.30;;
72422;SDS011;71399;54.146;38.734;2023-11-19T11:45:08;3.75;;;2.55;;
72422;SDS011;71399;54.146;38.734;2023-11-19T11:50:10;3.85;;;2.40;;
72422;SDS011;71399;54.146;38.734;2023-11-19T11:55:34;8.88;;;2.83;;
72422;SDS011;71399;54.146;38.734;2023-11-19T11:58:05;3.45;;;2.17;;
72422;SDS011;71399;54.146;38.734;2023-11-19T12:03:02;6.10;;;2.50;;
72422;SDS011;71399;54.146;38.734;2023-11-19T12:05:30;3.65;;;2.35;;
72422;SDS011;71399;54.146;38.734;2023-11-19T12:08:00;5.93;;;3.42;;
72422;SDS011;71399;54.146;38.734;2023-11-19T12:10:31;3.58;;;2.33;;
72422;SDS011;71399;54.146;38.734;2023-11-19T12:13:04;3.42;;;2.65;;
72422;SDS011;71399;54.146;38.734;2023-11-19T12:16:20;4.45;;;2.45;;
72422;SDS011;71399;54.146;38.734;2023-11-19T12:18:29;3.60;;;2.58;;
72422;SDS011;71399;54.146;38.734;2023-11-19T12:21:00;3.95;;;2.50;;
72422;SDS011;71399;54.146;38.734;2023-11-19T12:23:28;5.22;;;2.80;;
72422;SDS011;71399;54.146;38.734;2023-11-19T12:25:55;2.78;;;2.10;;
72422;SDS011;71399;54.146;38.734;2023-11-19T12:28:22;3.67;;;2.40;;
72422;SDS011;71399;54.146;38.734;2023-11-19T12:30:52;2.67;;;1.98;;
72422;SDS011;71399;54.146;38.734;2023-11-19T12:33:20;7.25;;;3.05;;
72422;SDS011;71399;54.146;38.734;2023-11-19T12:35:47;4.05;;;2.25;;
72422;SDS011;71399;54.146;38.734;2023-11-19T12:43:31;4.90;;;2.70;;
72422;SDS011;71399;54.146;38.734;2023-11-19T12:45:58;3.28;;;2.40;;
72422;SDS011;71399;54.146;38.734;2023-11-19T12:48:24;7.88;;;3.92;;
72422;SDS011;71399;54.146;38.734;2023-11-19T12:50:54;5.18;;;3.10;;
72422;SDS011;71399;54.146;38.734;2023-11-19T12:53:25;4.32;;;2.67;;
72422;SDS011;71399;54.146;38.734;2023-11-19T12:55:53;4.32;;;2.17;;
72422;SDS011;71399;54.146;38.734;2023-11-19T12:58:28;4.22;;;2.58;;
72422;SDS011;71399;54.146;38.734;2023-11-19T13:01:07;3.83;;;2.63;;
72422;SDS011;71399;54.146;38.734;2023-11-19T13:03:36;3.83;;;2.58;;
72422;SDS011;71399;54.146;38.734;2023-11-19T13:06:08;4.22;;;2.30;;
72422;SDS011;71399;54.146;38.734;2023-11-19T13:08:48;3.72;;;2.17;;
72422;SDS011;71399;54.146;38.734;2023-11-19T13:11:30;4.57;;;2.10;;
72422;SDS011;71399;54.146;38.734;2023-11-19T13:13:58;3.78;;;2.30;;
72422;SDS011;71399;54.146;38.734;2023-11-19T13:16:35;3.63;;;1.80;;
72422;SDS011;71399;54.146;38.734;2023-11-19T13:19:03;2.97;;;1.92;;
72422;SDS011;71399;54.146;38.734;2023-11-19T13:21:29;2.92;;;1.88;;
72422;SDS011;71399;54.146;38.734;2023-11-19T13:23:55;3.20;;;2.15;;
72422;SDS011;71399;54.146;38.734;2023-11-19T13:26:22;2.55;;;2.03;;
72422;SDS011;71399;54.146;38.734;2023-11-19T13:28:48;2.58;;;1.88;;
72422;SDS011;71399;54.146;38.734;2023-11-19T13:31:15;3.25;;;1.80;;
72422;SDS011;71399;54.146;38.734;2023-11-19T13:33:43;3.50;;;2.13;;
72422;SDS011;71399;54.146;38.734;2023-11-19T13:36:09;3.60;;;1.73;;
72422;SDS011;71399;54.146;38.734;2023-11-19T13:38:36;3.65;;;2.20;;
72422;SDS011;71399;54.146;38.734;2023-11-19T13:41:03;3.17;;;1.90;;
72422;SDS011;71399;54.146;38.734;2023-11-19T13:43:35;5.10;;;2.58;;
72422;SDS011;71399;54.146;38.734;2023-11-19T13:46:01;3.60;;;2.03;;
72422;SDS011;71399;54.146;38.734;2023-11-19T13:48:28;4.43;;;2.53;;
72422;SDS011;71399;54.146;38.734;2023-11-19T13:50:55;3.25;;;1.90;;
72422;SDS011;71399;54.146;38.734;2023-11-19T13:53:22;3.35;;;1.83;;
72422;SDS011;71399;54.146;38.734;2023-11-19T13:55:51;2.90;;;2.00;;
72422;SDS011;71399;54.146;38.734;2023-11-19T13:58:18;3.05;;;2.03;;
72422;SDS011;71399;54.146;38.734;2023-11-19T14:00:45;4.22;;;1.98;;
72422;SDS011;71399;54.146;38.734;2023-11-19T14:03:11;9.02;;;2.38;;
72422;SDS011;71399;54.146;38.734;2023-11-19T14:05:38;4.15;;;2.40;;
72422;SDS011;71399;54.146;38.734;2023-11-19T14:08:07;4.82;;;2.70;;
72422;SDS011;71399;54.146;38.734;2023-11-19T14:10:37;7.35;;;2.22;;
72422;SDS011;71399;54.146;38.734;2023-11-19T14:13:07;3.75;;;2.38;;
72422;SDS011;71399;54.146;38.734;2023-11-19T14:15:34;4.03;;;2.38;;
72422;SDS011;71399;54.146;38.734;2023-11-19T14:18:02;3.90;;;2.53;;
72422;SDS011;71399;54.146;38.734;2023-11-19T14:20:28;4.00;;;2.17;;
72422;SDS011;71399;54.146;38.734;2023-11-19T14:22:55;3.22;;;2.10;;
72422;SDS011;71399;54.146;38.734;2023-11-19T14:25:21;3.83;;;2.28;;
72422;SDS011;71399;54.146;38.734;2023-11-19T14:27:49;4.75;;;2.50;;
72422;SDS011;71399;54.146;38.734;2023-11-19T14:30:15;5.82;;;2.47;;
72422;SDS011;71399;54.146;38.734;2023-11-19T14:32:42;3.90;;;2.30;;
72422;SDS011;71399;54.146;38.734;2023-11-19T14:35:13;8.48;;;2.50;;
72422;SDS011;71399;54.146;38.734;2023-11-19T14:37:40;4.18;;;2.10;;
72422;SDS011;71399;54.146;38.734;2023-11-19T14:40:06;4.32;;;2.33;;
72422;SDS011;71399;54.146;38.734;2023-11-19T14:42:35;3.88;;;2.08;;
72422;SDS011;71399;54.146;38.734;2023-11-19T14:45:02;3.55;;;2.30;;
72422;SDS011;71399;54.146;38.734;2023-11-19T14:47:31;3.53;;;2.03;;
72422;SDS011;71399;54.146;38.734;2023-11-19T14:49:57;3.45;;;2.40;;
72422;SDS011;71399;54.146;38.734;2023-11-19T14:52:23;8.75;;;3.03;;
72422;SDS011;71399;54.146;38.734;2023-11-19T14:54:49;5.13;;;2.65;;
72422;SDS011;71399;54.146;38.734;2023-11-19T14:57:19;5.07;;;2.35;;
72422;SDS011;71399;54.146;38.734;2023-11-19T14:59:46;4.32;;;2.38;;